Time;durP1;ratioP1;P1;durP2;ratioP2;P2;SDS_P1;SDS_P2;PMS_P1;PMS_P2;Temp;Humidity;BMP_temperature;BMP_pressure;BME280_temperature;BME280_humidity;BME280_pressure;Samples;Min_cycle;Max_cycle;Signal;HPM_P1;HPM_P2
2022/02/05 00:01:27;;;;;;;158.77;52.77;;;;;;;-11.49;100.00;100150.34;1737500;81;21049;-72
2022/02/05 00:03:47;;;;;;;153.07;54.50;;;;;;;-11.48;100.00;100157.20;1727981;82;21601;-72
2022/02/05 00:06:15;;;;;;;172.00;55.30;;;;;;;-11.45;100.00;100159.02;1741807;82;21536;-73
2022/02/05 00:08:51;;;;;;;145.03;51.50;;;;;;;-11.43;100.00;100154.89;1748064;82;21556;-74
2022/02/05 00:38:11;;;;;;;150.23;51.23;;;;;;;-10.75;100.00;100140.42;1750154;82;21486;-73
2022/02/05 00:40:53;;;;;;;157.33;52.83;;;;;;;-10.41;100.00;100119.58;1750183;82;21022;-73
2022/02/05 00:43:16;;;;;;;160.60;55.27;;;;;;;-10.29;100.00;100105.67;1749308;82;21041;-71
2022/02/05 00:45:51;;;;;;;157.87;52.83;;;;;;;-10.20;100.00;100100.55;1750397;82;21045;-72
2022/02/05 00:48:17;;;;;;;150.60;53.07;;;;;;;-10.11;100.00;100105.20;1750157;82;21044;-70
2022/02/05 00:50:49;;;;;;;148.57;52.63;;;;;;;-10.01;100.00;100102.25;1750494;80;22635;-70
2022/02/05 00:53:25;;;;;;;152.17;53.37;;;;;;;-9.89;100.00;100101.05;1753669;82;21120;-69
2022/02/05 00:55:46;;;;;;;152.83;53.50;;;;;;;-9.78;100.00;100087.97;1744644;82;21025;-72
2022/02/05 00:58:10;;;;;;;142.60;52.80;;;;;;;-9.66;100.00;100088.03;1750144;82;21128;-71
2022/02/05 01:00:37;;;;;;;151.07;50.97;;;;;;;-9.55;100.00;100088.09;1750276;82;21164;-72
2022/02/05 01:03:04;;;;;;;137.80;49.33;;;;;;;-9.44;100.00;100083.05;1750182;81;22275;-71
2022/02/05 01:05:34;;;;;;;159.83;53.83;;;;;;;-9.34;100.00;100081.75;1750252;82;21060;-72
2022/02/05 01:08:00;;;;;;;162.23;55.17;;;;;;;-9.26;100.00;100071.48;1744452;81;21076;-70
2022/02/05 01:10:29;;;;;;;163.40;51.30;;;;;;;-9.15;100.00;100074.07;1747666;82;22240;-69
2022/02/05 01:13:07;;;;;;;124.23;43.53;;;;;;;-9.02;100.00;100068.18;1749179;81;21076;-73
2022/02/05 01:15:40;;;;;;;146.30;50.20;;;;;;;-8.89;100.00;100070.42;1752990;81;21074;-70
2022/02/05 01:18:05;;;;;;;96.37;37.87;;;;;;;-8.70;100.00;100075.42;1751177;81;21049;-69
2022/02/05 01:21:00;;;;;;;95.93;34.23;;;;;;;-8.51;100.00;100065.92;1747326;82;21112;-70
2022/02/05 01:23:11;;;;;;;81.33;31.53;;;;;;;-8.38;100.00;100063.00;1743318;82;21521;-69
2022/02/05 01:25:41;;;;;;;70.80;24.90;;;;;;;-8.25;100.00;100061.37;1747435;82;21501;-69
2022/02/05 01:28:13;;;;;;;56.10;20.93;;;;;;;-8.10;100.00;100061.47;1747175;82;21037;-70
2022/02/05 01:30:39;;;;;;;66.10;25.60;;;;;;;-7.98;100.00;100068.70;1746876;82;21525;-70
2022/02/05 01:33:18;;;;;;;58.87;23.30;;;;;;;-7.88;100.00;100069.11;1719566;82;21025;-71
2022/02/05 01:51:59;;;;;;;48.50;20.87;;;;;;;-7.47;100.00;100059.46;1703941;83;21057;-72
2022/02/05 01:56:59;;;;;;;60.70;23.57;;;;;;;-7.35;100.00;100053.02;1747207;82;21040;-71
2022/02/05 02:18:53;;;;;;;55.90;22.00;;;;;;;-7.01;95.33;100054.59;1710074;83;21059;-71
2022/02/05 02:21:38;;;;;;;50.67;20.87;;;;;;;-6.97;94.60;100047.48;1707068;83;21073;-71
2022/02/05 02:26:47;;;;;;;38.20;15.40;;;;;;;-6.94;92.33;100042.86;1709766;83;21073;-71
2022/02/05 02:29:15;;;;;;;30.80;11.20;;;;;;;-6.91;91.76;100053.60;1707938;83;21101;-72
2022/02/05 02:31:42;;;;;;;56.23;22.70;;;;;;;-6.88;91.09;100043.45;1708219;83;21017;-71
2022/02/05 02:34:06;;;;;;;42.47;17.57;;;;;;;-6.85;91.29;100043.56;1708374;83;21894;-72
2022/02/05 02:41:51;;;;;;;54.93;21.07;;;;;;;-6.83;90.82;100042.79;1709724;83;21085;-72
2022/02/05 02:44:11;;;;;;;47.03;21.93;;;;;;;-6.80;91.95;100045.44;1708083;83;21562;-73
2022/02/05 02:46:37;;;;;;;60.87;25.07;;;;;;;-6.78;92.06;100045.50;1728134;82;21946;-73
2022/02/05 02:49:06;;;;;;;48.63;19.23;;;;;;;-6.79;91.94;100033.49;1747573;81;21128;-73
2022/02/05 02:57:19;;;;;;;58.17;21.67;;;;;;;-6.72;91.36;100034.14;1747529;82;21048;-73
2022/02/05 02:59:49;;;;;;;47.40;17.90;;;;;;;-6.73;91.41;100025.15;1741506;82;21805;-73
2022/02/05 03:02:11;;;;;;;55.60;22.40;;;;;;;-6.74;91.66;100019.13;1745049;82;21121;-72
2022/02/05 03:04:36;;;;;;;;;;;;;;;-6.74;91.64;100011.45;1751353;82;21017;-72
2022/02/05 03:07:04;;;;;;;56.47;22.07;;;;;;;-6.74;91.93;100015.29;1751722;82;20468;-72
2022/02/05 03:09:30;;;;;;;63.27;26.90;;;;;;;-6.71;92.61;100011.56;1744013;82;21100;-73
2022/02/05 03:11:57;;;;;;;59.30;24.87;;;;;;;-6.67;93.50;100008.28;1742098;82;21518;-73
2022/02/05 03:14:24;;;;;;;57.67;24.33;;;;;;;-6.62;94.05;99998.17;1742321;82;21048;-72
2022/02/05 03:16:52;;;;;;;51.70;23.00;;;;;;;-6.59;93.81;100001.67;1742170;82;21088;-74
2022/02/05 03:19:19;;;;;;;51.93;21.33;;;;;;;-6.57;93.72;99994.91;1742400;82;21119;-73
2022/02/05 03:21:46;;;;;;;53.07;21.13;;;;;;;-6.55;93.43;99997.53;1742113;82;20965;-72
2022/02/05 03:24:12;;;;;;;39.60;18.37;;;;;;;-6.56;93.34;99997.05;1742359;82;21137;-73
2022/02/05 03:26:39;;;;;;;43.20;17.27;;;;;;;-6.58;92.66;99994.47;1742196;82;21062;-74
2022/02/05 03:29:08;;;;;;;47.63;20.53;;;;;;;-6.56;93.01;99995.38;1744752;82;21021;-73
2022/02/05 03:31:35;;;;;;;46.03;19.70;;;;;;;-6.54;93.94;99998.83;1746506;82;21037;-73
2022/02/05 03:34:02;;;;;;;36.67;16.40;;;;;;;-6.52;93.20;99991.63;1745436;82;21086;-71
2022/02/05 03:36:29;;;;;;;59.20;23.13;;;;;;;-6.56;92.87;99996.66;1751902;82;21124;-74
2022/02/05 03:38:55;;;;;;;44.33;17.03;;;;;;;-6.55;92.72;99998.39;1749230;82;21110;-74
2022/02/05 03:41:21;;;;;;;45.70;20.57;;;;;;;-6.55;92.89;99995.83;1747573;82;21053;-73
2022/02/05 03:43:48;;;;;;;52.10;21.67;;;;;;;-6.54;93.03;99989.86;1747706;82;21136;-74
2022/02/05 03:46:14;;;;;;;46.30;18.27;;;;;;;-6.51;92.88;99984.38;1747565;82;21561;-74
2022/02/05 03:48:41;;;;;;;46.77;21.07;;;;;;;-6.49;92.77;99986.58;1747542;81;21141;-72
2022/02/05 03:51:07;;;;;;;46.00;18.90;;;;;;;-6.47;92.72;99987.49;1747294;82;21116;-73
2022/02/05 03:53:35;;;;;;;46.90;19.47;;;;;;;-6.48;92.31;99983.20;1747483;81;21072;-73
2022/02/05 03:56:02;;;;;;;50.13;22.20;;;;;;;-6.44;92.17;99986.29;1738291;81;21300;-72
2022/02/05 03:58:29;;;;;;;52.77;21.27;;;;;;;-6.44;92.22;99981.16;1706842;84;21092;-72
2022/02/05 04:00:56;;;;;;;50.37;22.93;;;;;;;-6.44;92.01;99972.20;1706539;84;21544;-72
2022/02/05 04:03:22;;;;;;;48.60;18.60;;;;;;;-6.40;92.22;99974.89;1706420;83;21068;-73
2022/02/05 04:05:49;;;;;;;48.60;18.17;;;;;;;-6.37;91.91;99981.83;1706775;84;21071;-74
2022/02/05 04:08:16;;;;;;;57.70;23.57;;;;;;;-6.38;91.39;99981.34;1707432;83;21063;-71
2022/02/05 04:10:52;;;;;;;50.97;20.13;;;;;;;-6.35;91.22;99985.27;1714142;83;21519;-72
2022/02/05 04:16:22;;;;;;;50.60;19.93;;;;;;;-6.30;90.95;99978.61;1753152;81;21583;-72
2022/02/05 04:18:39;;;;;;;43.60;19.00;;;;;;;-6.31;90.67;99974.71;1751367;81;20997;-77
2022/02/05 04:23:35;;;;;;;54.40;21.30;;;;;;;-6.27;90.39;99967.57;1800285;79;22290;-72
2022/02/05 04:26:02;;;;;;;43.83;20.63;;;;;;;-6.35;90.25;99958.36;1758557;81;21034;-72
2022/02/05 04:28:30;;;;;;;54.87;22.03;;;;;;;-6.30;90.39;99975.16;1758985;81;21130;-73
2022/02/05 04:30:57;;;;;;;42.20;16.97;;;;;;;-6.29;90.24;99953.84;1759665;81;20985;-74
2022/02/05 04:33:23;;;;;;;52.83;22.83;;;;;;;-6.29;90.35;99957.27;1755323;81;21061;-74
2022/02/05 04:35:50;;;;;;;47.57;19.30;;;;;;;-6.29;90.76;99962.39;1747576;82;21093;-74
2022/02/05 04:38:18;;;;;;;53.43;23.33;;;;;;;-6.29;91.07;99957.27;1747894;82;21053;-74
2022/02/05 04:40:52;;;;;;;59.27;23.90;;;;;;;-6.29;91.26;99968.80;1747520;82;22172;-73
2022/02/05 04:54:16;;;;;;;43.77;18.40;;;;;;;-6.17;91.40;99978.52;1642048;85;21143;-68
2022/02/05 05:09:52;;;;;;;50.30;21.93;;;;;;;-6.05;90.33;99969.02;1720349;82;21097;-69
2022/02/05 05:20:14;;;;;;;47.30;19.03;;;;;;;-5.99;88.54;99944.83;1718913;83;21081;-68
2022/02/05 05:22:41;;;;;;;37.03;17.20;;;;;;;-5.98;88.49;99938.86;1711249;83;21017;-67
2022/02/05 05:25:08;;;;;;;44.20;18.57;;;;;;;-5.96;89.36;99946.19;1705153;84;21081;-68
2022/02/05 05:27:37;;;;;;;49.77;20.73;;;;;;;-5.95;89.57;99946.66;1705174;84;21046;-69
2022/02/05 05:30:07;;;;;;;42.67;20.03;;;;;;;-5.91;90.01;99944.59;1705217;84;21038;-68
2022/02/05 05:32:35;;;;;;;44.13;18.27;;;;;;;-5.87;89.33;99942.97;1705295;83;21082;-68
2022/02/05 05:35:05;;;;;;;45.03;19.57;;;;;;;-5.88;89.77;99945.95;1708114;82;21057;-70
2022/02/05 05:37:31;;;;;;;47.73;20.13;;;;;;;-5.87;89.21;99944.25;1704153;82;21058;-69
2022/02/05 05:39:58;;;;;;;47.23;20.87;;;;;;;-5.88;89.27;99952.78;1666664;85;21142;-70
2022/02/05 05:42:29;;;;;;;44.30;15.90;;;;;;;-5.87;88.99;99950.23;1692917;84;21541;-72
2022/02/05 05:52:23;;;;;;;45.27;18.63;;;;;;;-5.76;88.13;99954.38;1685019;84;21806;-72
2022/02/05 05:54:49;;;;;;;37.87;17.07;;;;;;;-5.75;88.21;99945.45;1665676;86;21144;-73
2022/02/05 05:57:16;;;;;;;45.43;20.87;;;;;;;-5.71;88.76;99951.50;1665619;86;21894;-72
2022/02/05 05:59:43;;;;;;;34.30;14.03;;;;;;;-5.69;88.39;99954.56;1665794;86;21073;-72
2022/02/05 06:02:10;;;;;;;43.83;18.73;;;;;;;-5.65;88.76;99952.09;1675649;84;21080;-72
2022/02/05 06:04:37;;;;;;;47.67;20.33;;;;;;;-5.62;88.54;99947.03;1674447;84;21106;-72
2022/02/05 06:07:04;;;;;;;43.33;20.37;;;;;;;-5.64;88.47;99928.16;1686273;84;21593;-72
2022/02/05 06:09:32;;;;;;;44.00;18.03;;;;;;;-5.61;88.71;99935.92;1686370;84;21146;-72
2022/02/05 06:12:00;;;;;;;44.93;19.03;;;;;;;-5.62;88.73;99930.35;1664170;84;21085;-71
2022/02/05 06:14:28;;;;;;;42.20;19.23;;;;;;;-5.60;89.04;99935.11;1663688;84;21070;-72
2022/02/05 06:17:04;;;;;;;44.63;16.70;;;;;;;-5.58;89.53;99925.75;1678129;84;21121;-73
2022/02/05 06:19:26;;;;;;;41.67;16.70;;;;;;;-5.64;89.56;99921.74;1688818;84;21053;-72
2022/02/05 06:21:52;;;;;;;39.73;17.67;;;;;;;-5.59;89.64;99929.13;1665412;84;21961;-72
2022/02/05 06:24:19;;;;;;;39.57;17.70;;;;;;;-5.57;90.46;99933.89;1674695;84;21065;-73
2022/02/05 06:26:45;;;;;;;36.67;12.40;;;;;;;-5.54;90.40;99926.29;1669165;84;21092;-73
2022/02/05 06:29:11;;;;;;;43.67;18.13;;;;;;;-5.52;90.41;99925.88;1704315;84;21058;-72
2022/02/05 06:31:39;;;;;;;48.50;19.03;;;;;;;-5.49;90.64;99918.28;1708377;82;21144;-73
2022/02/05 06:34:05;;;;;;;48.13;19.30;;;;;;;-5.44;90.86;99911.55;1721685;82;21043;-72
2022/02/05 06:36:32;;;;;;;43.50;19.70;;;;;;;-5.40;91.04;99905.67;1684943;84;21068;-72
2022/02/05 06:38:58;;;;;;;37.00;16.37;;;;;;;-5.37;91.36;99903.16;1694112;84;21104;-73
2022/02/05 06:41:25;;;;;;;45.57;18.77;;;;;;;-5.28;91.54;99907.23;1698725;84;21054;-72
2022/02/05 06:43:51;;;;;;;42.07;17.27;;;;;;;-5.24;91.25;99907.31;1689128;84;21060;-73
2022/02/05 06:46:17;;;;;;;40.30;16.77;;;;;;;-5.24;91.36;99899.62;1690278;84;21108;-72
2022/02/05 06:48:44;;;;;;;42.60;19.43;;;;;;;-5.23;91.93;99905.19;1696659;84;21101;-74
2022/02/05 06:51:10;;;;;;;46.30;19.67;;;;;;;-5.28;91.93;99908.52;1684856;84;21589;-72
2022/02/05 06:53:39;;;;;;;48.87;20.57;;;;;;;-5.28;91.89;99911.08;1682491;84;21120;-72
2022/02/05 06:56:05;;;;;;;42.17;19.80;;;;;;;-5.28;92.45;99907.65;1687751;84;21057;-73
2022/02/05 06:58:31;;;;;;;49.17;18.57;;;;;;;-5.22;92.87;99904.34;1687006;84;21109;-72
2022/02/05 07:00:58;;;;;;;45.13;20.07;;;;;;;-5.20;93.56;99907.81;1677087;84;21545;-73
2022/02/05 07:03:24;;;;;;;49.20;21.57;;;;;;;-5.12;94.40;99908.87;1680186;84;21072;-73
2022/02/05 07:05:51;;;;;;;42.60;18.93;;;;;;;-5.10;94.84;99911.06;1674268;84;21037;-73
2022/02/05 07:08:17;;;;;;;55.53;19.93;;;;;;;-5.08;95.62;99899.12;1679946;84;21058;-73
2022/02/05 07:10:47;;;;;;;53.10;22.97;;;;;;;-5.28;96.02;99861.44;1684610;84;21073;-73
2022/02/05 07:13:17;;;;;;;48.17;17.90;;;;;;;-5.03;96.75;99895.37;1690366;84;21104;-73
2022/02/05 07:16:05;;;;;;;44.30;16.43;;;;;;;-5.01;96.86;99894.57;1679896;84;21107;-72
2022/02/05 07:21:11;;;;;;;44.53;19.50;;;;;;;-5.01;97.97;99889.44;1674190;84;21037;-72
2022/02/05 07:29:14;;;;;;;65.27;22.47;;;;;;;-4.95;99.38;99874.13;1697910;83;21106;-71
2022/02/05 07:31:48;;;;;;;42.73;18.83;;;;;;;-4.91;99.74;99873.38;1692211;84;21152;-72
2022/02/05 07:34:16;;;;;;;41.80;16.83;;;;;;;-4.88;100.00;99867.43;1668318;85;21124;-73
2022/02/05 07:36:43;;;;;;;51.03;18.27;;;;;;;-4.89;100.00;99871.70;1667398;85;21129;-73
2022/02/05 07:39:10;;;;;;;43.43;20.00;;;;;;;-4.90;100.00;99867.42;1667921;85;21424;-73
2022/02/05 07:41:39;;;;;;;54.07;21.70;;;;;;;-4.86;100.00;99855.06;1666857;86;21571;-72
2022/02/05 07:44:08;;;;;;;52.23;20.63;;;;;;;-4.85;100.00;99852.96;1666481;86;21073;-74
2022/02/05 07:46:35;;;;;;;43.23;17.50;;;;;;;-4.78;100.00;99845.39;1679022;84;21113;-72
2022/02/05 07:49:01;;;;;;;55.53;23.70;;;;;;;-4.77;100.00;99848.39;1666016;86;21547;-72
2022/02/05 07:51:28;;;;;;;49.23;18.97;;;;;;;-4.72;100.00;99842.92;1666036;86;21114;-74
2022/02/05 07:53:54;;;;;;;47.30;20.93;;;;;;;-4.69;100.00;99848.14;1666265;86;21045;-75
2022/02/05 07:56:21;;;;;;;31.33;13.87;;;;;;;-4.68;100.00;99842.16;1666450;86;21097;-73
2022/02/05 07:58:47;;;;;;;49.63;23.40;;;;;;;-4.65;100.00;99848.63;1685284;84;21112;-74
2022/02/05 08:01:13;;;;;;;49.83;22.37;;;;;;;-4.61;100.00;99836.30;1694095;84;21139;-74
2022/02/05 08:03:40;;;;;;;58.63;21.13;;;;;;;-4.55;100.00;99833.85;1664557;83;21590;-75
2022/02/05 08:06:14;;;;;;;54.87;22.67;;;;;;;-4.49;100.00;99836.52;1666049;86;21127;-74
2022/02/05 08:08:35;;;;;;;54.17;23.83;;;;;;;-4.40;100.00;99819.55;1687732;84;21573;-73
2022/02/05 08:11:06;;;;;;;49.60;21.27;;;;;;;-4.31;100.00;99817.14;1695073;84;21069;-74
2022/02/05 08:13:33;;;;;;;51.23;22.47;;;;;;;-4.27;100.00;99807.37;1680355;84;21160;-74
2022/02/05 08:16:11;;;;;;;50.08;21.17;;;;;;;-4.24;100.00;99800.98;1668617;86;21096;-74
2022/02/05 08:18:27;;;;;;;46.03;18.40;;;;;;;-4.19;100.00;99796.78;1710767;83;21781;-73
2022/02/05 08:20:54;;;;;;;46.85;19.67;;;;;;;-4.14;100.00;99787.45;1712355;82;21074;-74
2022/02/05 08:23:20;;;;;;;50.00;21.07;;;;;;;-4.12;100.00;99790.89;1711673;83;21070;-73
2022/02/05 08:25:47;;;;;;;50.67;22.53;;;;;;;-4.05;100.00;99795.72;1711652;83;21217;-73
2022/02/05 08:28:13;;;;;;;34.67;15.30;;;;;;;-4.02;100.00;99786.36;1712292;83;21081;-73
2022/02/05 08:30:40;;;;;;;47.03;20.52;;;;;;;-3.99;100.00;99793.26;1712719;83;21065;-73
2022/02/05 08:33:06;;;;;;;49.60;21.07;;;;;;;-3.95;100.00;99781.33;1711952;83;20991;-73
2022/02/05 08:35:33;;;;;;;38.90;16.70;;;;;;;-3.89;100.00;99786.55;1712096;83;21049;-72
2022/02/05 08:38:00;;;;;;;49.38;19.73;;;;;;;-3.85;100.00;99789.63;1712397;83;21177;-74
2022/02/05 08:40:27;;;;;;;43.13;20.75;;;;;;;-3.83;100.00;99787.94;1712669;83;21552;-73
2022/02/05 08:42:54;;;;;;;44.53;18.60;;;;;;;-3.81;100.00;99783.69;1725856;82;21049;-73
2022/02/05 08:45:20;;;;;;;45.20;21.70;;;;;;;-3.77;100.00;99781.61;1737618;82;21086;-73
2022/02/05 08:47:46;;;;;;;44.58;20.30;;;;;;;-3.77;100.00;99781.61;1719042;82;21585;-73
2022/02/05 08:50:13;;;;;;;45.05;19.82;;;;;;;-3.79;100.00;99779.44;1732900;82;21131;-74
2022/02/05 08:52:41;;;;;;;44.40;21.85;;;;;;;-3.76;100.00;99776.04;1715488;82;21101;-74
2022/02/05 08:55:09;;;;;;;40.67;18.25;;;;;;;-3.75;100.00;99776.47;1712424;83;21046;-73
2022/02/05 08:57:39;;;;;;;46.40;21.00;;;;;;;-3.77;100.00;99782.90;1712488;83;21891;-72
2022/02/05 09:00:12;;;;;;;47.23;21.70;;;;;;;-3.76;100.00;99761.45;1712350;83;21640;-73
2022/02/05 09:02:47;;;;;;;43.98;20.45;;;;;;;-3.72;100.00;99760.66;1726813;82;21815;-73
2022/02/05 09:05:15;;;;;;;49.17;20.47;;;;;;;-3.67;100.00;99764.59;1739823;82;21010;-74
2022/02/05 09:07:37;;;;;;;52.40;22.05;;;;;;;-3.67;100.00;99764.16;1732489;82;21057;-73
2022/02/05 09:10:25;;;;;;;41.95;17.23;;;;;;;-3.64;100.00;99766.77;1736880;82;21514;-74
2022/02/05 09:15:07;;;;;;;65.22;24.45;;;;;;;-3.59;100.00;99751.39;1708998;82;21048;-74
2022/02/05 09:17:34;;;;;;;51.50;23.20;;;;;;;-3.57;100.00;99746.28;1742159;82;21483;-73
2022/02/05 09:20:01;;;;;;;45.65;22.50;;;;;;;-3.51;100.00;99739.50;1741899;82;21037;-73
2022/02/05 09:22:29;;;;;;;53.52;21.65;;;;;;;-3.48;100.00;99729.23;1741247;82;21137;-73
2022/02/05 09:24:58;;;;;;;57.27;23.75;;;;;;;-3.41;100.00;99723.75;1720322;82;21034;-74
2022/02/05 09:27:28;;;;;;;55.10;23.70;;;;;;;-3.37;100.00;99725.53;1704564;84;21559;-72
2022/02/05 09:30:01;;;;;;;54.98;23.18;;;;;;;-3.36;100.00;99732.39;1704663;84;21122;-73
2022/02/05 09:32:27;;;;;;;50.43;19.95;;;;;;;-3.32;100.00;99722.58;1704326;82;21034;-73
2022/02/05 09:34:54;;;;;;;56.35;23.75;;;;;;;-3.33;100.00;99702.84;1713028;82;21670;-74
2022/02/05 09:37:21;;;;;;;50.33;22.07;;;;;;;-3.23;100.00;99709.81;1721652;82;21053;-74
2022/02/05 09:39:47;;;;;;;36.65;18.52;;;;;;;-3.21;100.00;99704.27;1730363;82;21105;-74
2022/02/05 09:42:15;;;;;;;49.63;22.20;;;;;;;-3.20;100.00;99707.30;1713576;82;21290;-74
2022/02/05 09:44:43;;;;;;;52.20;24.75;;;;;;;-3.15;100.00;99707.34;1722417;82;21101;-74
2022/02/05 09:47:09;;;;;;;48.50;20.75;;;;;;;-3.10;100.00;99703.54;1731564;82;21046;-73
2022/02/05 09:49:37;;;;;;;47.43;22.80;;;;;;;-3.07;100.00;99707.42;1706225;82;21065;-73
2022/02/05 09:52:09;;;;;;;56.50;23.73;;;;;;;-3.03;100.00;99700.17;1698018;84;21549;-71
2022/02/05 09:54:41;;;;;;;47.40;19.32;;;;;;;-3.01;100.00;99694.19;1698777;84;21042;-71
2022/02/05 09:57:07;;;;;;;50.10;23.25;;;;;;;-2.97;100.00;99688.63;1689178;84;24593;-72
2022/02/05 09:59:53;;;;;;;51.25;23.22;;;;;;;-2.93;100.00;99687.82;1693999;84;21077;-73
2022/02/05 10:02:34;;;;;;;44.35;18.70;;;;;;;-2.87;100.00;99690.47;1690637;84;21601;-72
2022/02/05 10:05:09;;;;;;;48.75;22.55;;;;;;;-2.82;100.00;99691.38;1679464;84;21148;-72
2022/02/05 10:07:37;;;;;;;57.20;22.98;;;;;;;-2.76;100.00;99690.16;1675945;84;21096;-73
2022/02/05 10:10:06;;;;;;;75.23;30.17;;;;;;;-2.66;100.00;99694.11;1667043;84;21080;-74
2022/02/05 10:12:35;;;;;;;82.08;32.28;;;;;;;-2.63;100.00;99689.83;1670322;84;21537;-74
2022/02/05 10:15:02;;;;;;;71.60;27.65;;;;;;;-2.55;100.00;99692.50;1692194;84;21093;-73
2022/02/05 10:17:43;;;;;;;56.63;23.80;;;;;;;-2.46;100.00;99696.44;1689739;84;21366;-74
2022/02/05 10:20:12;;;;;;;64.30;24.57;;;;;;;-2.42;100.00;99689.14;1704709;84;21014;-73
2022/02/05 10:22:42;;;;;;;50.50;21.52;;;;;;;-2.41;100.00;99698.63;1715285;82;21096;-73
2022/02/05 10:25:18;;;;;;;52.70;23.00;;;;;;;-2.41;100.00;99687.02;1733471;81;21093;-72
2022/02/05 10:27:46;;;;;;;47.05;22.73;;;;;;;-2.39;100.00;99685.33;1725933;82;21116;-72
2022/02/05 10:30:26;;;;;;;46.58;21.10;;;;;;;-2.33;100.00;99672.89;1727597;82;21111;-72
2022/02/05 10:33:12;;;;;;;46.02;20.40;;;;;;;-2.25;100.00;99669.10;1727099;82;21040;-72
2022/02/05 10:35:45;;;;;;;47.03;22.07;;;;;;;-2.20;100.00;99664.39;1724054;82;21546;-72
2022/02/05 10:40:45;;;;;;;52.15;23.92;;;;;;;-2.10;100.00;99655.00;1732373;82;21572;-71
2022/02/05 10:43:12;;;;;;;49.27;21.17;;;;;;;-2.05;100.00;99652.02;1722215;82;21852;-71
2022/02/05 10:45:51;;;;;;;48.80;21.80;;;;;;;-2.02;100.00;99648.18;1718176;83;21045;-71
2022/02/05 10:48:22;;;;;;;37.10;17.30;;;;;;;-2.00;100.00;99645.19;1718019;83;21047;-71
2022/02/05 10:50:55;;;;;;;31.42;13.85;;;;;;;-1.96;100.00;99648.20;1718533;83;21064;-71
2022/02/05 10:53:31;;;;;;;47.55;20.37;;;;;;;-1.94;100.00;99643.05;1735371;82;21042;-71
2022/02/05 10:56:02;;;;;;;50.33;23.52;;;;;;;-1.93;100.00;99639.64;1746197;82;21135;-71
2022/02/05 10:58:42;;;;;;;42.10;21.30;;;;;;;-1.96;100.00;99634.44;1746641;82;27233;-71
2022/02/05 11:07:04;;;;;;;38.43;19.40;;;;;;;-1.85;100.00;99609.98;1748431;81;21481;-71
2022/02/05 11:09:30;;;;;;;42.98;19.98;;;;;;;-1.81;100.00;99598.83;1721074;82;21145;-70
2022/02/05 11:20:07;;;;;;;49.95;23.90;;;;;;;-1.65;100.00;99591.58;1740893;82;21150;-70
2022/02/05 11:22:44;;;;;;;57.48;21.77;;;;;;;-1.59;100.00;99588.99;1717717;83;21144;-70
2022/02/05 11:25:12;;;;;;;54.00;23.25;;;;;;;-1.56;100.00;99586.44;1730178;81;21085;-70
2022/02/05 11:27:47;;;;;;;50.60;23.77;;;;;;;-1.55;100.00;99585.57;1726810;82;21025;-71
2022/02/05 11:30:32;;;;;;;50.92;23.73;;;;;;;-1.58;100.00;99584.28;1729447;82;21050;-70
2022/02/05 11:33:29;;;;;;;43.90;18.17;;;;;;;-1.55;100.00;99576.97;1739199;82;21166;-70
2022/02/05 11:36:39;;;;;;;51.08;21.42;;;;;;;-1.53;100.00;99575.26;1725665;82;21161;-71
2022/02/05 11:38:30;;;;;;;61.60;27.07;;;;;;;-1.51;100.00;99568.38;1737047;82;21029;-70
2022/02/05 11:40:57;;;;;;;50.25;24.43;;;;;;;-1.48;100.00;99560.63;1743064;82;21060;-71
2022/02/05 11:43:35;;;;;;;40.30;19.42;;;;;;;-1.42;100.00;99553.34;1733973;82;21721;-70
2022/02/05 11:46:17;;;;;;;48.95;22.27;;;;;;;-1.42;100.00;99557.22;1739908;82;21125;-69
2022/02/05 11:48:59;;;;;;;56.30;21.90;;;;;;;-1.42;100.00;99557.22;1717542;82;21173;-72
2022/02/05 11:51:32;;;;;;;53.20;21.80;;;;;;;-1.41;100.00;99551.17;1729284;82;21061;-69
2022/02/05 11:54:06;;;;;;;44.58;19.82;;;;;;;-1.39;100.00;99557.21;1743648;82;21120;-71
2022/02/05 11:56:49;;;;;;;51.23;23.05;;;;;;;-1.39;100.00;99554.62;1717890;83;21002;-71
2022/02/05 11:59:09;;;;;;;56.83;24.35;;;;;;;-1.42;100.00;99550.76;1744542;82;21100;-70
2022/02/05 12:01:37;;;;;;;48.38;21.85;;;;;;;-1.40;100.00;99543.45;1745296;82;21534;-69
2022/02/05 12:04:21;;;;;;;48.95;21.85;;;;;;;-1.37;100.00;99545.17;1713431;82;21134;-69
2022/02/05 12:07:00;;;;;;;46.08;22.90;;;;;;;-1.38;100.00;99540.84;1696206;83;21009;-70
2022/02/05 12:09:48;;;;;;;39.00;19.48;;;;;;;-1.39;100.00;99527.08;1740121;82;21014;-71
2022/02/05 12:12:41;;;;;;;60.25;27.42;;;;;;;-1.39;100.00;99523.63;1732214;82;21534;-71
2022/02/05 12:15:16;;;;;;;31.15;13.08;;;;;;;-1.37;100.00;99516.75;1744569;82;21780;-71
2022/02/05 12:21:02;;;;;;;53.58;23.90;;;;;;;-1.39;100.00;99512.02;1681284;85;21568;-71
2022/02/05 12:26:25;;;;;;;63.68;30.50;;;;;;;-1.37;100.00;99506.42;1734747;82;21044;-72
2022/02/05 12:28:54;;;;;;;51.13;19.98;;;;;;;-1.31;100.00;99509.02;1725101;82;22318;-72
2022/02/05 12:31:34;;;;;;;52.58;26.37;;;;;;;-1.32;100.00;99503.41;1739223;82;21013;-69
2022/02/05 12:34:03;;;;;;;48.70;19.95;;;;;;;-1.32;100.00;99495.66;1727301;82;21037;-70
2022/02/05 12:36:36;;;;;;;47.93;23.95;;;;;;;-1.33;100.00;99496.09;1729360;82;21025;-70
2022/02/05 12:39:10;;;;;;;58.60;28.00;;;;;;;-1.31;100.00;99485.77;1747711;82;21060;-70
2022/02/05 12:41:38;;;;;;;55.20;26.05;;;;;;;-1.30;100.00;99483.61;1732651;82;21154;-70
2022/02/05 12:44:07;;;;;;;51.50;24.27;;;;;;;-1.25;100.00;99493.94;1720645;82;21114;-69
2022/02/05 12:46:50;;;;;;;54.48;24.27;;;;;;;-1.20;100.00;99498.67;1735678;82;21592;-70
2022/02/05 12:51:44;;;;;;;60.25;25.90;;;;;;;-1.19;100.00;99497.39;1740890;82;21069;-72
2022/02/05 12:54:23;;;;;;;54.67;22.90;;;;;;;-1.16;100.00;99503.84;1751738;82;21070;-72
2022/02/05 12:56:51;;;;;;;44.58;18.32;;;;;;;-1.19;100.00;99492.23;1721668;82;20990;-72
2022/02/05 12:59:24;;;;;;;39.90;19.90;;;;;;;-1.17;100.00;99485.78;1725671;82;21509;-71
2022/02/05 13:02:03;;;;;;;50.58;22.93;;;;;;;-1.17;100.00;99486.63;1731427;82;21143;-71
2022/02/05 13:04:35;;;;;;;48.60;22.90;;;;;;;-1.17;100.00;99485.34;1718204;82;21045;-71
2022/02/05 13:07:10;;;;;;;57.40;26.27;;;;;;;-1.17;100.00;99494.38;1736601;82;21118;-71
2022/02/05 13:09:53;;;;;;;50.30;22.60;;;;;;;-1.16;100.00;99485.76;1739897;82;21046;-71
2022/02/05 13:12:22;;;;;;;54.98;24.52;;;;;;;-1.14;100.00;99467.68;1742252;82;21727;-71
2022/02/05 13:15:08;;;;;;;51.50;24.07;;;;;;;-1.14;100.00;99471.12;1729600;82;21112;-71
2022/02/05 13:36:23;;;;;;;;;;;;;;;-0.99;100.00;99437.96;1734930;82;21597;-70
2022/02/05 13:39:13;;;;;;;86.22;30.48;;;;;;;-0.98;100.00;99443.98;1729755;82;20206;-73
2022/02/05 13:41:51;;;;;;;103.92;36.58;;;;;;;-0.99;100.00;99447.41;1727790;82;21109;-74
2022/02/05 13:44:16;;;;;;;90.20;35.45;;;;;;;-1.01;100.00;99447.84;1727143;82;21037;-73
2022/02/05 13:46:41;;;;;;;90.28;32.67;;;;;;;-1.00;100.00;99449.58;1739203;81;21156;-74
2022/02/05 13:49:18;;;;;;;73.78;26.35;;;;;;;-1.01;100.00;99445.26;1741366;82;21039;-74
2022/02/05 13:51:44;;;;;;;89.32;32.85;;;;;;;-1.01;100.00;99436.21;1744559;82;22122;-73
2022/02/05 13:54:14;;;;;;;69.80;27.65;;;;;;;-1.00;100.00;99443.13;1726325;82;21065;-73
2022/02/05 13:56:40;;;;;;;54.45;23.10;;;;;;;-1.02;100.00;99453.88;1738605;82;21002;-74
2022/02/05 13:59:19;;;;;;;51.25;23.75;;;;;;;-1.04;100.00;99450.00;1739786;82;21118;-73
2022/02/05 14:01:46;;;;;;;50.58;20.68;;;;;;;-1.11;100.00;99423.73;1719403;82;21030;-72
2022/02/05 14:04:19;;;;;;;70.60;32.58;;;;;;;-1.03;100.00;99436.67;1751057;81;21052;-73
2022/02/05 14:06:55;;;;;;;56.18;23.65;;;;;;;-1.10;100.00;99421.16;1738613;82;21061;-73
2022/02/05 14:09:32;;;;;;;52.78;24.67;;;;;;;-1.02;100.00;99435.80;1737902;82;21010;-72
2022/02/05 14:12:18;;;;;;;62.20;27.45;;;;;;;-1.02;100.00;99438.38;1731445;82;22018;-75
2022/02/05 14:14:44;;;;;;;56.55;26.75;;;;;;;-1.01;100.00;99434.91;1730390;82;21049;-74
2022/02/05 14:17:17;;;;;;;51.90;23.67;;;;;;;-1.00;100.00;99428.91;1690686;82;21112;-72
2022/02/05 14:19:47;;;;;;;55.10;26.57;;;;;;;-0.99;100.00;99425.44;1744742;82;21549;-71